createdAt,value
2023-02-11T00:00:17.872Z,95.43
2023-02-11T00:00:49.947Z,94.97
2023-02-11T00:01:29.431Z,95.07
2023-02-11T00:02:01.350Z,97.50
2023-02-11T00:02:33.591Z,95.53
2023-02-11T00:03:05.528Z,97.37
2023-02-11T00:03:37.537Z,105.17
2023-02-11T00:04:09.377Z,95.93
2023-02-11T00:04:41.293Z,96.13
2023-02-11T00:05:13.267Z,97.07
2023-02-11T00:05:45.105Z,97.43
2023-02-11T00:06:16.989Z,99.57
2023-02-11T00:06:48.835Z,105.70
2023-02-11T00:07:20.668Z,104.67
2023-02-11T00:07:52.448Z,104.37
2023-02-11T00:08:24.260Z,108.07
2023-02-11T00:08:56.247Z,110.80
2023-02-11T00:09:30.317Z,110.70
2023-02-11T00:10:04.365Z,113.57
2023-02-11T00:10:36.201Z,105.83
2023-02-11T00:11:08.145Z,97.43
2023-02-11T00:11:39.960Z,97.03
2023-02-11T00:12:11.769Z,102.23
2023-02-11T00:12:43.609Z,104.83
2023-02-11T00:13:15.407Z,102.63
2023-02-11T00:13:47.285Z,100.90
2023-02-11T00:14:19.084Z,96.93
2023-02-11T00:14:50.931Z,97.63
2023-02-11T00:15:22.905Z,97.17
2023-02-11T00:15:54.905Z,97.80
2023-02-11T00:16:27.025Z,101.67
2023-02-11T00:16:58.872Z,100.70
2023-02-11T00:17:30.697Z,100.50
2023-02-11T00:18:02.584Z,99.13
2023-02-11T00:18:34.445Z,107.63
2023-02-11T00:19:06.778Z,108.50
2023-02-11T00:19:38.575Z,106.13
2023-02-11T00:20:10.665Z,105.47
2023-02-11T00:20:42.637Z,111.47
2023-02-11T00:21:19.122Z,111.33
2023-02-11T00:21:50.908Z,115.43
2023-02-11T00:22:22.810Z,118.43
2023-02-11T00:22:54.631Z,121.87
2023-02-11T00:23:26.420Z,122.63
2023-02-11T00:23:59.882Z,126.07
2023-02-11T00:24:31.907Z,124.57
2023-02-11T00:25:03.804Z,120.47
2023-02-11T00:25:43.282Z,111.57
2023-02-11T00:26:25.780Z,109.77
2023-02-11T00:26:57.710Z,103.97
2023-02-11T00:27:29.507Z,107.33
2023-02-11T00:28:01.365Z,108.53
2023-02-11T00:28:33.240Z,113.97
2023-02-11T00:29:05.606Z,110.60
2023-02-11T00:29:38.204Z,106.30
2023-02-11T00:30:11.087Z,104.60
2023-02-11T00:30:43.032Z,103.00
2023-02-11T00:31:15.320Z,97.60
2023-02-11T00:31:47.378Z,93.50
2023-02-11T00:32:19.309Z,96.93
2023-02-11T00:32:51.099Z,97.37
2023-02-11T00:33:22.974Z,95.20
2023-02-11T00:33:54.892Z,94.60
2023-02-11T00:34:26.750Z,93.07
2023-02-11T00:34:58.697Z,93.27
2023-02-11T00:35:30.475Z,94.67
2023-02-11T00:36:13.826Z,93.00
2023-02-11T00:36:45.665Z,95.23
2023-02-11T00:37:17.458Z,96.70
2023-02-11T00:37:49.301Z,98.57
2023-02-11T00:38:21.082Z,98.83
2023-02-11T00:38:53.824Z,99.90
2023-02-11T00:39:25.599Z,105.47
2023-02-11T00:39:57.354Z,104.10
2023-02-11T00:40:29.129Z,103.80
2023-02-11T00:41:00.995Z,102.60
2023-02-11T00:41:32.870Z,103.83
2023-02-11T00:42:04.836Z,103.90
2023-02-11T00:42:37.460Z,102.57
2023-02-11T00:43:09.330Z,100.13
2023-02-11T00:43:41.929Z,101.23
2023-02-11T00:44:13.753Z,100.93
2023-02-11T00:44:45.663Z,102.10
2023-02-11T00:45:17.657Z,99.60
2023-02-11T00:45:49.805Z,101.23
2023-02-11T00:46:21.979Z,101.90
2023-02-11T00:46:53.907Z,99.83
2023-02-11T00:47:25.788Z,96.43
2023-02-11T00:47:57.710Z,97.80
2023-02-11T00:48:29.574Z,99.73
2023-02-11T00:49:01.447Z,100.90
2023-02-11T00:49:33.361Z,99.03
2023-02-11T00:50:05.625Z,97.43
2023-02-11T00:50:37.441Z,96.63
2023-02-11T00:51:09.311Z,100.20
2023-02-11T00:51:41.190Z,102.70
2023-02-11T00:52:13.036Z,101.00
2023-02-11T00:52:44.911Z,102.90
2023-02-11T00:53:16.716Z,98.87
2023-02-11T00:53:48.576Z,99.03
2023-02-11T00:54:20.448Z,99.10
2023-02-11T00:54:52.238Z,100.07
2023-02-11T00:55:24.029Z,99.30
2023-02-11T00:55:55.911Z,98.13
2023-02-11T00:56:27.712Z,99.13
2023-02-11T00:56:59.509Z,97.17
2023-02-11T00:57:31.350Z,92.70
2023-02-11T00:58:03.213Z,89.80
2023-02-11T00:58:35.353Z,91.33
2023-02-11T00:59:07.212Z,92.50
2023-02-11T00:59:39.091Z,89.23
2023-02-11T01:00:12.114Z,86.07
2023-02-11T01:00:43.971Z,84.40
2023-02-11T01:01:15.881Z,85.17
2023-02-11T01:01:47.779Z,84.33
2023-02-11T01:02:19.697Z,84.23
2023-02-11T01:02:51.484Z,86.43
2023-02-11T01:03:23.348Z,85.17
2023-02-11T01:03:55.134Z,85.60
2023-02-11T01:04:26.992Z,84.70
2023-02-11T01:05:00.208Z,85.30
2023-02-11T01:05:32.247Z,83.77
2023-02-11T01:06:04.889Z,83.03
2023-02-11T01:06:36.711Z,84.83
2023-02-11T01:07:08.657Z,83.77
2023-02-11T01:07:40.423Z,84.17
2023-02-11T01:08:12.360Z,86.43
2023-02-11T01:08:44.163Z,85.63
2023-02-11T01:09:15.961Z,84.63
2023-02-11T01:09:47.819Z,85.07
2023-02-11T01:10:19.704Z,84.80
2023-02-11T01:11:08.672Z,83.27
2023-02-11T01:11:40.522Z,82.53
2023-02-11T01:12:12.307Z,81.80
2023-02-11T01:12:44.149Z,82.47
2023-02-11T01:13:15.969Z,80.20
2023-02-11T01:13:48.363Z,81.17
2023-02-11T01:14:20.201Z,84.20
2023-02-11T01:14:52.147Z,83.10
2023-02-11T01:15:24.076Z,84.60
2023-02-11T01:15:56.088Z,85.37
2023-02-11T01:16:28.003Z,86.33
2023-02-11T01:16:59.841Z,88.77
2023-02-11T01:17:31.669Z,91.77
2023-02-11T01:18:05.180Z,92.70
2023-02-11T01:18:37.141Z,88.37
2023-02-11T01:19:08.954Z,92.17
2023-02-11T01:19:40.813Z,92.87
2023-02-11T01:20:16.740Z,91.50
2023-02-11T01:20:48.546Z,93.20
2023-02-11T01:21:20.461Z,94.87
2023-02-11T01:21:52.260Z,93.37
2023-02-11T01:22:24.124Z,92.13
2023-02-11T01:22:56.014Z,88.87
2023-02-11T01:23:27.842Z,83.47
2023-02-11T01:23:59.676Z,82.97
2023-02-11T01:24:31.480Z,86.87
2023-02-11T01:25:03.671Z,86.97
2023-02-11T01:25:35.510Z,84.13
2023-02-11T01:26:07.374Z,83.57
2023-02-11T01:26:39.275Z,82.77
2023-02-11T01:27:11.075Z,82.73
2023-02-11T01:27:42.954Z,81.90
2023-02-11T01:28:25.074Z,79.17
2023-02-11T01:28:56.920Z,79.83
2023-02-11T01:29:28.730Z,82.53
2023-02-11T01:30:00.544Z,87.50
2023-02-11T01:30:32.397Z,91.63
2023-02-11T01:31:04.541Z,97.10
2023-02-11T01:31:36.543Z,96.47
2023-02-11T01:32:08.439Z,100.17
2023-02-11T01:32:40.402Z,101.53
2023-02-11T01:33:12.236Z,101.73
2023-02-11T01:33:44.086Z,106.63
2023-02-11T01:34:16.170Z,107.37
2023-02-11T01:34:47.936Z,105.20
2023-02-11T01:35:20.846Z,92.20
2023-02-11T01:35:53.002Z,78.80
2023-02-11T01:36:25.191Z,77.97
2023-02-11T01:36:58.749Z,88.57
2023-02-11T01:37:32.610Z,94.97
2023-02-11T01:38:04.441Z,92.13
2023-02-11T01:38:36.331Z,91.63
2023-02-11T01:39:11.396Z,92.20
2023-02-11T01:39:43.226Z,94.87
2023-02-11T01:40:16.560Z,102.33
2023-02-11T01:41:01.819Z,104.43
2023-02-11T01:41:33.746Z,108.40
2023-02-11T01:42:05.876Z,112.63
2023-02-11T01:42:37.796Z,111.20
2023-02-11T01:43:10.859Z,125.77
2023-02-11T01:43:47.704Z,133.93
2023-02-11T01:44:23.101Z,133.67
2023-02-11T01:44:55.938Z,130.87
2023-02-11T01:45:54.071Z,133.20
2023-02-11T01:46:38.315Z,136.93
2023-02-11T01:47:10.334Z,142.43
2023-02-11T01:47:42.134Z,140.07
2023-02-11T01:48:16.360Z,140.33
2023-02-11T01:48:53.361Z,141.80
2023-02-11T01:49:31.094Z,138.40
2023-02-11T01:50:04.078Z,137.97
2023-02-11T01:50:36.135Z,136.47
2023-02-11T01:51:21.907Z,139.87
2023-02-11T01:52:04.631Z,139.93
2023-02-11T01:52:37.647Z,140.67
2023-02-11T01:53:27.981Z,140.77
2023-02-11T01:54:35.355Z,140.57
2023-02-11T01:55:29.140Z,139.90
2023-02-11T01:56:19.276Z,142.67
2023-02-11T01:57:10.354Z,140.33
2023-02-11T01:57:43.680Z,137.17
2023-02-11T01:58:15.478Z,136.17
2023-02-11T01:58:47.267Z,139.33
2023-02-11T01:59:22.796Z,138.87
2023-02-11T02:00:12.354Z,138.87
2023-02-11T02:00:44.162Z,138.40
2023-02-11T02:01:17.663Z,137.77
2023-02-11T02:01:53.504Z,138.70
2023-02-11T02:02:43.204Z,138.20
2023-02-11T02:03:20.215Z,135.43
2023-02-11T02:03:52.678Z,136.23
2023-02-11T02:04:27.524Z,135.43
2023-02-11T02:05:03.759Z,136.27
2023-02-11T02:05:49.584Z,134.77
2023-02-11T02:06:33.851Z,137.83
2023-02-11T02:07:14.503Z,140.23
2023-02-11T02:08:12.993Z,135.43
2023-02-11T02:08:50.319Z,134.83
2023-02-11T02:09:26.922Z,137.10
2023-02-11T02:10:01.248Z,133.47
2023-02-11T02:10:33.133Z,132.80
2023-02-11T02:11:05.012Z,135.87
2023-02-11T02:11:36.813Z,136.40
2023-02-11T02:12:08.652Z,137.83
2023-02-11T02:12:40.437Z,136.53
2023-02-11T02:13:12.464Z,137.77
2023-02-11T02:13:44.331Z,138.37
2023-02-11T02:14:16.137Z,136.87
2023-02-11T02:14:47.980Z,135.83
2023-02-11T02:15:25.396Z,140.73
2023-02-11T02:16:07.881Z,137.67
2023-02-11T02:16:41.462Z,136.67
2023-02-11T02:17:34.765Z,139.03
2023-02-11T02:18:49.047Z,136.60
2023-02-11T02:19:51.361Z,135.43
2023-02-11T02:21:08.284Z,135.33
2023-02-11T02:21:45.883Z,130.80
2023-02-11T02:22:25.018Z,127.27
2023-02-11T02:24:20.325Z,129.13
2023-02-11T02:25:06.890Z,126.37
2023-02-11T02:26:10.843Z,122.27
2023-02-11T02:26:54.613Z,124.70
2023-02-11T02:27:40.634Z,135.10
2023-02-11T02:28:45.050Z,132.77
2023-02-11T02:29:22.826Z,135.20
2023-02-11T02:30:00.108Z,135.17
2023-02-11T02:30:50.145Z,132.77
2023-02-11T02:31:52.687Z,134.70
2023-02-11T02:32:42.689Z,138.43
2023-02-11T02:33:22.152Z,140.03
2023-02-11T02:34:29.693Z,136.83
2023-02-11T02:35:19.548Z,135.13
2023-02-11T02:36:02.771Z,132.40
2023-02-11T02:37:00.223Z,129.17
2023-02-11T02:37:48.935Z,120.27
2023-02-11T02:39:53.450Z,105.40
2023-02-11T02:40:37.232Z,106.87
2023-02-11T02:41:11.341Z,107.70
2023-02-11T02:41:43.171Z,103.57
2023-02-11T02:42:14.945Z,104.83
2023-02-11T02:42:46.972Z,105.43
2023-02-11T02:43:18.809Z,106.27
2023-02-11T02:43:51.028Z,109.90
2023-02-11T02:44:22.908Z,113.60
2023-02-11T02:44:54.732Z,113.03
2023-02-11T02:45:26.523Z,109.73
2023-02-11T02:46:11.200Z,106.73
2023-02-11T02:46:43.020Z,102.87
2023-02-11T02:47:14.922Z,104.87
2023-02-11T02:47:46.696Z,105.67
2023-02-11T02:48:32.193Z,105.17
2023-02-11T02:49:04.189Z,103.60
2023-02-11T02:49:36.009Z,102.63
2023-02-11T02:50:08.203Z,101.00
2023-02-11T02:50:39.984Z,104.00
2023-02-11T02:51:15.905Z,103.63
2023-02-11T02:52:24.799Z,102.83
2023-02-11T02:53:02.476Z,104.70
2023-02-11T02:54:07.576Z,106.47
2023-02-11T02:54:53.202Z,105.17
2023-02-11T02:55:35.668Z,106.10
2023-02-11T02:56:16.005Z,102.83
2023-02-11T02:57:04.007Z,104.27
2023-02-11T02:57:47.795Z,105.77
2023-02-11T02:58:33.173Z,103.97
2023-02-11T02:59:13.935Z,104.83
2023-02-11T03:00:29.925Z,105.67
2023-02-11T03:01:30.420Z,105.90
2023-02-11T03:02:25.258Z,106.80
2023-02-11T03:03:15.478Z,101.00
2023-02-11T03:03:59.320Z,95.03
2023-02-11T03:04:53.815Z,92.80
2023-02-11T03:05:46.946Z,94.07
2023-02-11T03:06:39.517Z,93.67
2023-02-11T03:07:37.571Z,96.00
2023-02-11T03:08:32.831Z,92.00
2023-02-11T03:09:15.222Z,88.87
2023-02-11T03:10:00.838Z,86.83
2023-02-11T03:10:34.682Z,87.13
2023-02-11T03:11:06.584Z,77.63
2023-02-11T03:11:38.479Z,75.03
2023-02-11T03:12:10.334Z,75.83
2023-02-11T03:12:42.410Z,78.20
2023-02-11T03:13:17.122Z,85.67
2023-02-11T03:13:49.012Z,87.57
2023-02-11T03:14:20.845Z,88.97
2023-02-11T03:14:52.767Z,91.47
2023-02-11T03:15:26.305Z,89.73
2023-02-11T03:15:58.266Z,92.03
2023-02-11T03:16:30.158Z,90.00
2023-02-11T03:17:03.135Z,88.30
2023-02-11T03:17:36.118Z,87.07
2023-02-11T03:18:09.345Z,87.07
2023-02-11T03:18:42.725Z,86.53
2023-02-11T03:19:31.124Z,84.27
2023-02-11T03:20:04.413Z,85.83
2023-02-11T03:20:37.143Z,82.43
2023-02-11T03:21:09.058Z,79.83
2023-02-11T03:21:41.555Z,76.10
2023-02-11T03:22:33.871Z,74.20
2023-02-11T03:23:13.561Z,69.33
2023-02-11T03:23:54.136Z,69.00
2023-02-11T03:24:31.094Z,66.83
2023-02-11T03:25:03.104Z,66.50
2023-02-11T03:25:37.449Z,65.57
2023-02-11T03:26:19.808Z,66.63
2023-02-11T03:26:55.445Z,67.27
2023-02-11T03:27:47.408Z,67.13
2023-02-11T03:28:28.154Z,67.43
2023-02-11T03:29:25.849Z,65.57
2023-02-11T03:29:57.510Z,66.37
2023-02-11T03:30:44.358Z,66.50
2023-02-11T03:31:41.334Z,69.33
2023-02-11T03:32:35.902Z,64.87
2023-02-11T03:33:14.283Z,63.00
2023-02-11T03:34:08.764Z,62.37
2023-02-11T03:34:48.409Z,61.70
2023-02-11T03:35:21.913Z,59.57
2023-02-11T03:36:15.407Z,60.30
2023-02-11T03:37:15.202Z,59.73
2023-02-11T03:37:54.596Z,61.00
2023-02-11T03:38:39.937Z,64.07
2023-02-11T03:39:14.474Z,64.90
2023-02-11T03:39:57.758Z,64.03
2023-02-11T03:40:32.130Z,62.73
2023-02-11T03:41:04.806Z,63.60
2023-02-11T03:41:36.655Z,64.00
2023-02-11T03:42:08.952Z,63.97
2023-02-11T03:42:47.079Z,63.00
2023-02-11T03:43:23.214Z,61.87
2023-02-11T03:43:56.674Z,62.43
2023-02-11T03:44:30.928Z,63.10
2023-02-11T03:45:21.758Z,63.47
2023-02-11T03:45:53.979Z,64.43
2023-02-11T03:46:33.845Z,63.50
2023-02-11T03:47:06.133Z,61.80
2023-02-11T03:47:39.238Z,64.00
2023-02-11T03:48:24.485Z,64.70
2023-02-11T03:48:58.899Z,62.13
2023-02-11T03:49:30.704Z,64.17
2023-02-11T03:50:04.452Z,64.77
2023-02-11T03:50:36.334Z,64.40
2023-02-11T03:51:09.416Z,63.90
2023-02-11T03:51:41.278Z,64.37
2023-02-11T03:52:13.148Z,65.03
2023-02-11T03:52:44.898Z,66.93
2023-02-11T03:53:16.664Z,67.13
2023-02-11T03:53:48.455Z,66.90
2023-02-11T03:54:24.139Z,64.10
2023-02-11T03:54:56.652Z,62.83
2023-02-11T03:55:28.634Z,63.57
2023-02-11T03:56:01.339Z,61.53
2023-02-11T03:56:35.724Z,62.53
2023-02-11T03:57:07.681Z,63.23
2023-02-11T03:57:39.567Z,63.37
2023-02-11T03:58:11.424Z,62.23
2023-02-11T03:58:45.507Z,62.73
2023-02-11T03:59:17.413Z,61.67
2023-02-11T03:59:58.867Z,61.87
2023-02-11T04:00:39.689Z,62.67
2023-02-11T04:01:11.568Z,58.47
2023-02-11T04:01:43.402Z,61.97
2023-02-11T04:02:15.274Z,64.10
2023-02-11T04:02:47.186Z,62.10
2023-02-11T04:03:19.234Z,60.40
2023-02-11T04:03:51.090Z,58.23
2023-02-11T04:04:22.892Z,58.33
2023-02-11T04:04:54.981Z,57.33
2023-02-11T04:05:26.765Z,55.83
2023-02-11T04:05:58.547Z,55.37
2023-02-11T04:06:30.342Z,57.27
2023-02-11T04:07:02.137Z,56.17
2023-02-11T04:07:33.973Z,55.07
2023-02-11T04:08:05.960Z,54.80
2023-02-11T04:08:37.808Z,55.10
2023-02-11T04:09:10.125Z,54.40
2023-02-11T04:09:41.972Z,53.90
2023-02-11T04:10:13.812Z,54.30
2023-02-11T04:10:45.629Z,52.57
2023-02-11T04:11:17.475Z,52.73
2023-02-11T04:11:49.354Z,53.13
2023-02-11T04:12:21.267Z,54.47
2023-02-11T04:12:53.071Z,53.90
2023-02-11T04:13:24.964Z,52.40
2023-02-11T04:13:56.789Z,53.67
2023-02-11T04:14:29.176Z,55.70
2023-02-11T04:15:00.950Z,54.23
2023-02-11T04:15:32.963Z,53.27
2023-02-11T04:16:04.956Z,53.27
2023-02-11T04:16:36.874Z,53.50
2023-02-11T04:17:08.754Z,51.03
2023-02-11T04:17:40.565Z,50.13
2023-02-11T04:18:12.388Z,50.53
2023-02-11T04:18:44.193Z,49.93
2023-02-11T04:19:16.041Z,49.53
2023-02-11T04:19:47.877Z,49.70
2023-02-11T04:20:19.819Z,51.20
2023-02-11T04:20:51.653Z,50.37
2023-02-11T04:21:23.455Z,50.73
2023-02-11T04:21:55.302Z,52.17
2023-02-11T04:22:27.181Z,51.40
2023-02-11T04:22:58.988Z,52.90
2023-02-11T04:23:30.810Z,53.63
2023-02-11T04:24:02.685Z,52.40
2023-02-11T04:24:34.763Z,52.77
2023-02-11T04:25:06.946Z,54.67
2023-02-11T04:25:38.796Z,56.57
2023-02-11T04:26:10.645Z,55.83
2023-02-11T04:26:42.782Z,55.67
2023-02-11T04:27:14.644Z,57.07
2023-02-11T04:27:46.446Z,60.30
2023-02-11T04:28:18.275Z,58.07
2023-02-11T04:28:50.078Z,57.97
2023-02-11T04:29:21.995Z,56.33
2023-02-11T04:29:54.363Z,55.63
2023-02-11T04:30:26.220Z,55.90
2023-02-11T04:30:58.093Z,57.23
2023-02-11T04:31:29.953Z,58.37
2023-02-11T04:32:01.831Z,60.97
2023-02-11T04:32:33.630Z,59.77
2023-02-11T04:33:05.455Z,63.57
2023-02-11T04:33:37.228Z,66.87
2023-02-11T04:34:09.027Z,70.17
2023-02-11T04:34:40.867Z,69.00
2023-02-11T04:35:12.690Z,68.50
2023-02-11T04:35:44.479Z,67.27
2023-02-11T04:36:16.263Z,71.33
2023-02-11T04:36:48.088Z,75.53
2023-02-11T04:37:19.986Z,78.47
2023-02-11T04:37:51.798Z,77.67
2023-02-11T04:38:26.576Z,73.30
2023-02-11T04:38:58.412Z,70.60
2023-02-11T04:39:30.188Z,69.43
2023-02-11T04:40:02.052Z,69.97
2023-02-11T04:40:33.881Z,71.83
2023-02-11T04:41:05.753Z,73.07
2023-02-11T04:41:37.537Z,73.03
2023-02-11T04:42:09.311Z,71.07
2023-02-11T04:42:41.080Z,69.73
2023-02-11T04:43:12.906Z,72.47
2023-02-11T04:43:44.686Z,68.07
2023-02-11T04:44:16.667Z,68.70
2023-02-11T04:44:48.489Z,69.70
2023-02-11T04:45:20.390Z,63.83
2023-02-11T04:45:52.554Z,60.87
2023-02-11T04:46:24.707Z,57.97
2023-02-11T04:46:56.525Z,59.10
2023-02-11T04:47:28.369Z,58.80
2023-02-11T04:48:01.445Z,59.23
2023-02-11T04:48:34.920Z,60.47
2023-02-11T04:49:06.728Z,60.80
2023-02-11T04:49:38.502Z,61.13
2023-02-11T04:50:10.381Z,62.00
2023-02-11T04:50:42.217Z,62.67
2023-02-11T04:51:14.043Z,61.93
2023-02-11T04:51:48.908Z,62.13
2023-02-11T04:52:21.140Z,65.10
2023-02-11T04:52:52.954Z,64.43
2023-02-11T04:53:24.751Z,66.43
2023-02-11T04:53:56.571Z,66.03
2023-02-11T04:54:28.414Z,67.43
2023-02-11T04:55:00.851Z,67.47
2023-02-11T04:55:32.632Z,68.40
2023-02-11T04:56:04.675Z,70.07
2023-02-11T04:56:36.583Z,69.87
2023-02-11T04:57:08.584Z,67.90
2023-02-11T04:57:40.492Z,68.40
2023-02-11T04:58:12.317Z,65.93
2023-02-11T04:58:44.192Z,67.93
2023-02-11T04:59:16.048Z,67.17
2023-02-11T04:59:48.966Z,66.77
2023-02-11T05:00:21.033Z,68.83
2023-02-11T05:00:52.873Z,66.53
2023-02-11T05:01:24.777Z,65.37
2023-02-11T05:01:56.974Z,66.07
2023-02-11T05:02:28.762Z,65.73
2023-02-11T05:03:00.548Z,62.70
2023-02-11T05:03:32.360Z,60.73
2023-02-11T05:04:04.409Z,60.37
2023-02-11T05:04:36.218Z,61.93
2023-02-11T05:05:08.711Z,60.80
2023-02-11T05:05:43.293Z,61.03
2023-02-11T05:06:15.122Z,60.47
2023-02-11T05:06:46.956Z,59.23
2023-02-11T05:07:18.790Z,59.17
2023-02-11T05:07:50.636Z,58.57
2023-02-11T05:08:22.466Z,60.17
2023-02-11T05:08:54.305Z,60.13
2023-02-11T05:09:26.075Z,60.63
2023-02-11T05:09:57.876Z,62.37
2023-02-11T05:10:29.733Z,63.63
2023-02-11T05:11:02.369Z,61.77
2023-02-11T05:11:34.154Z,64.47
2023-02-11T05:12:06.166Z,63.87
2023-02-11T05:12:37.962Z,60.20
2023-02-11T05:13:09.736Z,60.13
2023-02-11T05:13:41.556Z,59.67
2023-02-11T05:14:13.343Z,57.83
2023-02-11T05:14:45.097Z,55.63
2023-02-11T05:15:17.136Z,57.87
2023-02-11T05:15:49.200Z,60.07
2023-02-11T05:16:21.339Z,58.60
2023-02-11T05:16:53.310Z,58.17
2023-02-11T05:17:25.159Z,58.33
2023-02-11T05:17:56.969Z,57.10
2023-02-11T05:18:28.783Z,57.70
2023-02-11T05:19:00.768Z,56.23
2023-02-11T05:19:32.713Z,56.50
2023-02-11T05:20:04.842Z,55.53
2023-02-11T05:20:39.031Z,53.63
2023-02-11T05:21:12.663Z,54.57
2023-02-11T05:22:00.227Z,54.87
2023-02-11T05:22:33.748Z,55.20
2023-02-11T05:23:05.585Z,54.93
2023-02-11T05:23:37.513Z,55.37
2023-02-11T05:24:09.399Z,53.90
2023-02-11T05:24:41.259Z,52.37
2023-02-11T05:25:13.102Z,54.00
2023-02-11T05:25:44.916Z,51.47
2023-02-11T05:26:16.817Z,54.30
2023-02-11T05:26:48.679Z,54.83
2023-02-11T05:27:20.520Z,53.87
2023-02-11T05:27:52.323Z,53.33
2023-02-11T05:28:24.184Z,51.77
2023-02-11T05:28:56.485Z,54.50
2023-02-11T05:29:28.595Z,54.50
2023-02-11T05:30:00.410Z,54.83
2023-02-11T05:30:32.363Z,55.40
2023-02-11T05:31:04.415Z,56.80
2023-02-11T05:31:36.210Z,56.23
2023-02-11T05:32:09.159Z,55.20
2023-02-11T05:32:41.032Z,55.03
2023-02-11T05:33:12.823Z,55.57
2023-02-11T05:33:44.651Z,56.43
2023-02-11T05:34:16.565Z,56.67
2023-02-11T05:34:48.422Z,55.27
2023-02-11T05:35:20.274Z,56.03
2023-02-11T05:35:52.355Z,56.93
2023-02-11T05:36:24.276Z,57.10
2023-02-11T05:36:56.179Z,58.57
2023-02-11T05:37:28.225Z,58.60
2023-02-11T05:38:00.059Z,56.03
2023-02-11T05:38:31.892Z,54.93
2023-02-11T05:39:03.856Z,55.93
2023-02-11T05:39:36.060Z,56.80
2023-02-11T05:40:08.173Z,57.47
2023-02-11T05:40:40.005Z,56.70
2023-02-11T05:41:12.048Z,57.13
2023-02-11T05:41:43.878Z,58.40
2023-02-11T05:42:15.706Z,57.87
2023-02-11T05:42:47.492Z,58.50
2023-02-11T05:43:19.370Z,57.83
2023-02-11T05:43:51.246Z,56.97
2023-02-11T05:44:23.154Z,57.90
2023-02-11T05:44:54.925Z,59.20
2023-02-11T05:45:26.803Z,59.73
2023-02-11T05:45:58.746Z,59.00
2023-02-11T05:46:30.626Z,59.53
2023-02-11T05:47:02.479Z,60.17
2023-02-11T05:47:34.465Z,59.60
2023-02-11T05:48:06.293Z,58.80
2023-02-11T05:48:38.110Z,60.43
2023-02-11T05:49:09.987Z,60.57
2023-02-11T05:49:41.780Z,58.33
2023-02-11T05:50:13.599Z,59.90
2023-02-11T05:50:45.626Z,59.90
2023-02-11T05:51:17.450Z,59.87
2023-02-11T05:51:49.270Z,59.87
2023-02-11T05:52:21.896Z,59.43
2023-02-11T05:52:53.673Z,61.30
2023-02-11T05:53:25.845Z,59.93
2023-02-11T05:53:57.695Z,59.30
2023-02-11T05:54:29.570Z,57.57
2023-02-11T05:55:01.674Z,57.20
2023-02-11T05:55:33.727Z,58.97
2023-02-11T05:56:05.990Z,58.10
2023-02-11T05:56:37.772Z,57.87
2023-02-11T05:57:09.627Z,59.77
2023-02-11T05:57:41.460Z,60.67
2023-02-11T05:58:13.772Z,61.33
2023-02-11T05:58:45.552Z,60.40
2023-02-11T05:59:17.317Z,61.13
2023-02-11T05:59:49.111Z,62.77
2023-02-11T06:00:20.892Z,61.90
2023-02-11T06:00:52.768Z,62.07
2023-02-11T06:01:24.652Z,59.47
2023-02-11T06:01:56.460Z,59.87
2023-02-11T06:02:28.924Z,60.47
2023-02-11T06:03:00.891Z,59.57
2023-02-11T06:03:32.841Z,60.17
2023-02-11T06:04:04.690Z,61.00
2023-02-11T06:04:36.752Z,60.77
2023-02-11T06:05:08.901Z,62.07
2023-02-11T06:05:40.742Z,61.23
2023-02-11T06:06:12.749Z,62.80
2023-02-11T06:06:44.545Z,65.00
2023-02-11T06:07:17.721Z,65.77
2023-02-11T06:07:49.568Z,67.20
2023-02-11T06:08:21.393Z,61.37
2023-02-11T06:08:53.216Z,61.60
2023-02-11T06:09:25.001Z,63.53
2023-02-11T06:09:56.822Z,63.00
2023-02-11T06:10:28.727Z,64.83
2023-02-11T06:11:00.559Z,65.67
2023-02-11T06:11:32.386Z,64.17
2023-02-11T06:12:04.422Z,64.10
2023-02-11T06:12:36.956Z,64.63
2023-02-11T06:13:08.814Z,63.70
2023-02-11T06:13:40.615Z,61.03
2023-02-11T06:14:12.470Z,59.97
2023-02-11T06:14:44.443Z,61.80
2023-02-11T06:15:16.300Z,63.13
2023-02-11T06:15:56.685Z,62.80
2023-02-11T06:16:28.576Z,62.73
2023-02-11T06:17:00.795Z,62.27
2023-02-11T06:17:33.828Z,61.27
2023-02-11T06:18:05.725Z,62.07
2023-02-11T06:18:37.609Z,63.03
2023-02-11T06:19:09.468Z,63.00
2023-02-11T06:19:41.255Z,62.90
2023-02-11T06:20:13.572Z,65.53
2023-02-11T06:20:45.386Z,64.97
2023-02-11T06:21:17.232Z,63.60
2023-02-11T06:21:49.010Z,64.23
2023-02-11T06:22:20.832Z,65.93
2023-02-11T06:22:52.642Z,66.80
2023-02-11T06:23:24.492Z,66.40
2023-02-11T06:23:56.317Z,67.70
2023-02-11T06:24:50.963Z,70.03
2023-02-11T06:25:20.005Z,70.67
2023-02-11T06:25:52.811Z,72.10
2023-02-11T06:26:24.881Z,79.43
2023-02-11T06:26:56.662Z,85.83
2023-02-11T06:27:28.477Z,89.97
2023-02-11T06:28:00.348Z,93.70
2023-02-11T06:28:32.794Z,124.40
2023-02-11T06:29:04.608Z,126.93
2023-02-11T06:29:36.421Z,127.77
2023-02-11T06:30:08.970Z,137.73
2023-02-11T06:30:40.786Z,139.47
2023-02-11T06:31:12.883Z,140.90
2023-02-11T06:31:44.821Z,142.17
2023-02-11T06:32:36.872Z,136.30
2023-02-11T06:33:09.529Z,127.93
2023-02-11T06:33:41.368Z,124.03
2023-02-11T06:34:13.181Z,120.20
2023-02-11T06:34:45.651Z,118.93
2023-02-11T06:35:17.501Z,118.73
2023-02-11T06:35:49.643Z,118.80
2023-02-11T06:36:22.143Z,118.13
2023-02-11T06:36:53.982Z,120.23
2023-02-11T06:37:25.818Z,125.10
2023-02-11T06:37:57.606Z,125.37
2023-02-11T06:38:29.423Z,124.67
2023-02-11T06:39:01.262Z,122.70
2023-02-11T06:39:33.104Z,120.83
2023-02-11T06:40:05.234Z,147.10
2023-02-11T06:40:36.995Z,154.07
2023-02-11T06:41:12.529Z,127.10
2023-02-11T06:41:44.375Z,126.57
2023-02-11T06:42:16.217Z,123.07
2023-02-11T06:42:48.468Z,116.93
2023-02-11T06:43:20.241Z,112.60
2023-02-11T06:43:52.798Z,113.87
2023-02-11T06:44:24.748Z,115.70
2023-02-11T06:44:56.577Z,116.77
2023-02-11T06:45:28.450Z,117.10
2023-02-11T06:46:00.307Z,118.90
2023-02-11T06:46:32.263Z,117.30
2023-02-11T06:47:04.166Z,122.53
2023-02-11T06:47:35.993Z,126.17
2023-02-11T06:48:08.624Z,124.83
2023-02-11T06:48:41.657Z,123.03
2023-02-11T06:49:14.954Z,123.97
2023-02-11T06:49:46.756Z,125.13
2023-02-11T06:50:18.639Z,123.90
2023-02-11T06:50:50.485Z,126.10
2023-02-11T06:51:22.355Z,127.40
2023-02-11T06:51:54.703Z,124.93
2023-02-11T06:52:26.668Z,128.47
2023-02-11T06:53:00.039Z,127.03
2023-02-11T06:53:38.798Z,124.80
2023-02-11T06:54:11.639Z,126.00
2023-02-11T06:54:43.508Z,124.80
2023-02-11T06:55:15.301Z,124.57
2023-02-11T06:55:47.114Z,126.80
2023-02-11T06:56:20.321Z,128.20
2023-02-11T06:56:52.249Z,130.43
2023-02-11T06:57:24.101Z,124.73
2023-02-11T06:57:55.868Z,121.27
2023-02-11T06:58:27.680Z,117.50
2023-02-11T06:58:59.706Z,118.67
2023-02-11T06:59:31.451Z,122.03
2023-02-11T07:00:04.949Z,121.60
2023-02-11T07:00:37.542Z,119.53
2023-02-11T07:01:11.021Z,122.53
2023-02-11T07:01:42.946Z,118.50
2023-02-11T07:02:14.852Z,122.43
2023-02-11T07:02:46.801Z,123.40
2023-02-11T07:03:18.773Z,121.77
2023-02-11T07:03:50.735Z,123.33
2023-02-11T07:04:22.956Z,122.60
2023-02-11T07:04:54.756Z,128.27
2023-02-11T07:05:26.658Z,135.13
2023-02-11T07:05:58.456Z,137.13
2023-02-11T07:06:30.302Z,140.77
2023-02-11T07:07:02.150Z,134.40
2023-02-11T07:07:34.350Z,135.20
2023-02-11T07:08:06.385Z,128.47
2023-02-11T07:08:38.598Z,123.00
2023-02-11T07:09:10.526Z,121.63
2023-02-11T07:09:42.392Z,121.53
2023-02-11T07:10:14.223Z,125.33
2023-02-11T07:10:46.117Z,125.43
2023-02-11T07:11:21.055Z,120.73
2023-02-11T07:11:52.815Z,119.20
2023-02-11T07:12:24.604Z,122.00
2023-02-11T07:12:58.720Z,121.43
2023-02-11T07:13:30.645Z,121.77
2023-02-11T07:14:04.379Z,117.73
2023-02-11T07:14:36.198Z,120.13
2023-02-11T07:15:08.424Z,120.60
2023-02-11T07:15:40.253Z,122.43
2023-02-11T07:16:15.980Z,123.23
2023-02-11T07:16:47.785Z,125.03
2023-02-11T07:17:19.556Z,124.87
2023-02-11T07:17:51.346Z,122.33
2023-02-11T07:18:23.089Z,121.50
2023-02-11T07:18:54.965Z,123.97
2023-02-11T07:19:26.812Z,123.67
2023-02-11T07:19:58.657Z,123.80
2023-02-11T07:20:30.455Z,127.23
2023-02-11T07:21:08.868Z,126.00